createdAt,value
2023-08-17T00:02:14.320Z,99.90
2023-08-17T00:04:41.553Z,99.90
2023-08-17T00:07:08.434Z,99.90
2023-08-17T00:09:35.412Z,99.90
2023-08-17T00:12:02.606Z,99.90
2023-08-17T00:14:30.036Z,99.90
2023-08-17T00:16:57.013Z,99.90
2023-08-17T00:19:24.354Z,99.90
2023-08-17T00:21:52.325Z,99.90
2023-08-17T00:24:19.337Z,99.90
2023-08-17T00:26:46.206Z,99.90
2023-08-17T00:29:13.107Z,99.90
2023-08-17T00:31:40.019Z,99.90
2023-08-17T00:34:07.817Z,99.90
2023-08-17T00:36:34.752Z,99.90
2023-08-17T00:39:02.419Z,99.90
2023-08-17T00:41:29.820Z,99.90
2023-08-17T00:43:57.157Z,99.90
2023-08-17T00:46:25.795Z,99.90
2023-08-17T00:48:52.746Z,99.90
2023-08-17T00:51:21.639Z,99.90
2023-08-17T00:53:48.546Z,99.90
2023-08-17T00:56:15.771Z,99.90
2023-08-17T00:58:43.623Z,99.90
2023-08-17T01:01:10.579Z,99.90
2023-08-17T01:03:38.472Z,99.90
2023-08-17T01:06:05.443Z,99.90
2023-08-17T01:08:32.339Z,99.90
2023-08-17T01:11:17.497Z,99.90
2023-08-17T01:14:05.992Z,99.90
2023-08-17T01:16:54.265Z,99.90
2023-08-17T01:19:30.276Z,99.90
2023-08-17T01:22:06.773Z,99.90
2023-08-17T01:24:33.916Z,99.90
2023-08-17T01:27:00.991Z,99.90
2023-08-17T01:29:27.923Z,99.90
2023-08-17T01:32:20.939Z,99.90
2023-08-17T01:34:54.760Z,99.90
2023-08-17T01:37:22.140Z,99.90
2023-08-17T01:39:51.250Z,99.90
2023-08-17T01:42:18.198Z,99.90
2023-08-17T01:44:45.310Z,99.90
2023-08-17T01:47:12.604Z,99.90
2023-08-17T01:49:39.531Z,99.90
2023-08-17T01:52:06.581Z,99.90
2023-08-17T01:54:33.620Z,99.90
2023-08-17T01:57:00.659Z,99.90
2023-08-17T01:59:27.565Z,99.90
2023-08-17T02:01:55.328Z,99.90
2023-08-17T02:04:22.320Z,99.90
2023-08-17T02:06:49.276Z,99.90
2023-08-17T02:09:16.164Z,99.90
2023-08-17T02:11:43.079Z,99.90
2023-08-17T02:14:09.986Z,99.90
2023-08-17T02:16:36.939Z,99.90
2023-08-17T02:19:04.635Z,99.90
2023-08-17T02:21:31.565Z,99.90
2023-08-17T02:23:58.444Z,99.90
2023-08-17T02:26:25.330Z,99.90
2023-08-17T02:28:52.248Z,99.90
2023-08-17T02:31:19.198Z,99.90
2023-08-17T02:33:46.220Z,99.90
2023-08-17T02:36:13.160Z,99.90
2023-08-17T02:38:40.129Z,99.90
2023-08-17T02:41:07.036Z,99.90
2023-08-17T02:43:33.947Z,99.90
2023-08-17T02:46:01.000Z,99.90
2023-08-17T02:48:28.034Z,99.90
2023-08-17T02:50:54.906Z,99.90
2023-08-17T02:53:21.833Z,99.90
2023-08-17T02:55:48.710Z,99.90
2023-08-17T02:58:15.610Z,99.90
2023-08-17T03:00:42.486Z,99.90
2023-08-17T03:03:09.408Z,99.90
2023-08-17T03:05:36.397Z,99.90
2023-08-17T03:08:03.487Z,99.90
2023-08-17T03:10:30.604Z,99.90
2023-08-17T03:12:57.519Z,99.90
2023-08-17T03:15:25.242Z,99.90
2023-08-17T03:17:52.645Z,99.90
2023-08-17T03:20:19.594Z,99.90
2023-08-17T03:22:46.530Z,99.90
2023-08-17T03:25:13.452Z,99.90
2023-08-17T03:27:42.071Z,99.90
2023-08-17T03:30:09.191Z,99.90
2023-08-17T03:32:36.749Z,99.90
2023-08-17T03:35:03.978Z,99.90
2023-08-17T03:37:30.851Z,99.90
2023-08-17T03:39:57.815Z,99.90
2023-08-17T03:42:24.732Z,99.90
2023-08-17T03:44:52.388Z,99.90
2023-08-17T03:47:19.519Z,99.90
2023-08-17T03:49:47.661Z,99.90
2023-08-17T03:52:14.571Z,99.90
2023-08-17T03:54:41.652Z,99.90
2023-08-17T03:57:09.261Z,99.90
2023-08-17T03:59:36.795Z,99.90
2023-08-17T04:02:04.128Z,99.90
2023-08-17T04:04:31.098Z,99.90
2023-08-17T04:06:58.773Z,99.90
2023-08-17T04:09:25.657Z,99.90
2023-08-17T04:11:53.603Z,99.90
2023-08-17T04:14:20.503Z,99.90
2023-08-17T04:16:48.762Z,99.90
2023-08-17T04:19:15.663Z,99.90
2023-08-17T04:21:43.030Z,99.90
2023-08-17T04:24:10.002Z,99.90
2023-08-17T04:26:36.939Z,99.90
2023-08-17T04:29:03.997Z,99.90
2023-08-17T04:31:30.965Z,99.90
2023-08-17T04:34:01.428Z,99.90
2023-08-17T04:36:29.125Z,99.90
2023-08-17T04:38:56.045Z,99.90
2023-08-17T04:41:22.981Z,99.90
2023-08-17T04:43:51.371Z,99.90
2023-08-17T04:46:18.354Z,99.90
2023-08-17T04:48:45.369Z,99.90
2023-08-17T04:51:16.811Z,99.90
2023-08-17T04:53:44.881Z,99.90
2023-08-17T04:56:11.855Z,99.90
2023-08-17T04:58:39.872Z,99.90
2023-08-17T05:01:07.050Z,99.90
2023-08-17T05:03:35.455Z,99.90
2023-08-17T05:06:04.866Z,99.90
2023-08-17T05:08:33.318Z,99.90
2023-08-17T05:11:01.405Z,99.90
2023-08-17T05:13:28.390Z,99.90
2023-08-17T05:15:58.471Z,99.90
2023-08-17T05:18:25.699Z,99.90
2023-08-17T05:20:53.330Z,99.90
2023-08-17T05:23:20.231Z,99.90
2023-08-17T05:25:48.720Z,99.90
2023-08-17T05:28:15.941Z,99.90
2023-08-17T05:30:43.012Z,99.90
2023-08-17T05:33:09.959Z,99.90
2023-08-17T05:35:37.002Z,99.90
2023-08-17T05:38:04.085Z,99.90
2023-08-17T05:40:31.927Z,99.90
2023-08-17T05:42:58.765Z,99.90
2023-08-17T05:45:25.670Z,99.90
2023-08-17T05:47:53.592Z,99.90
2023-08-17T05:50:20.683Z,99.90
2023-08-17T05:52:47.533Z,99.90
2023-08-17T05:55:14.422Z,99.90
2023-08-17T05:57:41.310Z,99.90
2023-08-17T06:00:11.449Z,99.90
2023-08-17T06:02:43.588Z,99.90
2023-08-17T06:05:10.589Z,99.90
2023-08-17T06:07:37.493Z,99.90
2023-08-17T06:10:07.214Z,99.90
2023-08-17T06:12:34.277Z,99.90
2023-08-17T06:15:02.305Z,99.90
2023-08-17T06:17:29.483Z,99.90
2023-08-17T06:19:56.570Z,99.90
2023-08-17T06:22:23.516Z,99.90
2023-08-17T06:24:50.384Z,99.90
2023-08-17T06:27:17.319Z,99.90
2023-08-17T06:29:45.047Z,99.90
2023-08-17T06:32:11.952Z,99.90
2023-08-17T06:34:38.820Z,99.90
2023-08-17T06:37:06.485Z,99.90
2023-08-17T06:39:33.797Z,99.90
2023-08-17T06:42:00.775Z,99.90
2023-08-17T06:44:27.812Z,99.90
2023-08-17T06:46:54.726Z,99.90
2023-08-17T06:49:21.638Z,99.90
2023-08-17T06:51:48.825Z,99.90
2023-08-17T06:54:15.842Z,99.90
2023-08-17T06:56:42.720Z,99.90
2023-08-17T06:59:09.642Z,99.90
2023-08-17T07:01:36.589Z,99.90
2023-08-17T07:04:03.727Z,99.90
2023-08-17T07:06:30.621Z,99.90
2023-08-17T07:08:57.913Z,99.90
2023-08-17T07:11:25.200Z,99.90
2023-08-17T07:13:52.241Z,99.90
2023-08-17T07:16:19.193Z,99.90
2023-08-17T07:18:46.431Z,99.90
2023-08-17T07:21:13.403Z,99.90
2023-08-17T07:23:40.361Z,99.90
2023-08-17T07:26:07.293Z,99.90
2023-08-17T07:28:34.195Z,99.90
2023-08-17T07:31:01.101Z,99.90
2023-08-17T07:33:27.998Z,99.90
2023-08-17T07:35:56.919Z,99.90
2023-08-17T07:38:23.843Z,99.90
2023-08-17T07:40:50.797Z,99.90
2023-08-17T07:43:17.714Z,99.90
2023-08-17T07:45:44.684Z,99.90
2023-08-17T07:48:11.607Z,99.90
2023-08-17T07:50:38.515Z,99.90
2023-08-17T07:53:05.532Z,99.90
2023-08-17T07:55:32.389Z,99.90
2023-08-17T07:57:59.282Z,99.90
2023-08-17T08:00:26.207Z,99.90
2023-08-17T08:02:53.218Z,99.90
2023-08-17T08:05:20.285Z,99.90
2023-08-17T08:07:47.192Z,99.90
2023-08-17T08:10:14.147Z,99.90
2023-08-17T08:12:41.058Z,99.90
2023-08-17T08:15:08.620Z,99.90
2023-08-17T08:17:36.619Z,99.90
2023-08-17T08:20:04.118Z,99.90
2023-08-17T08:22:31.076Z,99.90
2023-08-17T08:24:59.078Z,99.90
2023-08-17T08:27:26.083Z,99.90
2023-08-17T08:29:53.000Z,99.90
2023-08-17T08:32:19.905Z,99.90
2023-08-17T08:34:46.781Z,99.90
2023-08-17T08:37:13.689Z,99.90
2023-08-17T08:39:51.071Z,99.90
2023-08-17T08:42:18.933Z,99.90
2023-08-17T08:44:46.474Z,99.90
2023-08-17T08:47:14.126Z,99.90
2023-08-17T08:49:42.551Z,99.90
2023-08-17T08:52:14.002Z,99.90
2023-08-17T08:54:40.981Z,99.90
2023-08-17T08:57:10.738Z,99.90
2023-08-17T08:59:38.017Z,99.90
2023-08-17T09:02:05.100Z,99.90
2023-08-17T09:04:32.092Z,99.90
2023-08-17T09:07:04.865Z,99.90
2023-08-17T09:09:31.886Z,99.90
2023-08-17T09:11:58.845Z,99.90
2023-08-17T09:14:25.745Z,99.90
2023-08-17T09:16:52.724Z,99.90
2023-08-17T09:19:20.209Z,99.90
2023-08-17T09:21:50.824Z,99.90
2023-08-17T09:24:18.090Z,99.90
2023-08-17T09:26:45.075Z,99.90
2023-08-17T09:29:19.621Z,99.90
2023-08-17T09:31:47.375Z,99.90
2023-08-17T09:34:15.868Z,99.90
2023-08-17T09:36:42.955Z,99.90
2023-08-17T09:39:15.062Z,99.90
2023-08-17T09:41:43.763Z,99.90
2023-08-17T09:44:13.815Z,99.90
2023-08-17T09:46:43.855Z,99.90
2023-08-17T09:49:10.787Z,99.90
2023-08-17T09:51:43.077Z,99.90
2023-08-17T09:54:18.871Z,99.90
2023-08-17T09:56:45.755Z,99.90
2023-08-17T09:59:12.638Z,99.90
2023-08-17T10:01:39.521Z,99.10
2023-08-17T10:04:06.686Z,97.80
2023-08-17T10:06:33.628Z,97.10
2023-08-17T10:09:00.640Z,96.40
2023-08-17T10:11:27.609Z,94.70
2023-08-17T10:14:11.767Z,94.30
2023-08-17T10:16:45.962Z,86.80
2023-08-17T10:19:34.980Z,74.60
2023-08-17T10:22:07.477Z,72.70
2023-08-17T10:24:37.438Z,70.50
2023-08-17T10:27:05.630Z,70.30
2023-08-17T10:29:32.819Z,70.10
2023-08-17T10:32:03.631Z,66.50
2023-08-17T10:34:30.646Z,65.40
2023-08-17T10:36:59.166Z,66.50
2023-08-17T10:39:30.139Z,67.70
2023-08-17T10:41:58.236Z,67.00
2023-08-17T10:44:42.384Z,63.90
2023-08-17T10:47:21.971Z,59.00
2023-08-17T10:49:59.011Z,57.50
2023-08-17T10:52:28.351Z,56.40
2023-08-17T10:54:56.724Z,56.20
2023-08-17T10:57:28.895Z,56.10
2023-08-17T11:00:33.286Z,55.20
2023-08-17T11:03:01.483Z,55.20
2023-08-17T11:05:44.024Z,55.20
2023-08-17T11:08:31.401Z,55.30
2023-08-17T11:10:59.230Z,54.50
2023-08-17T11:13:28.820Z,54.10
2023-08-17T11:15:55.869Z,52.40
2023-08-17T11:18:23.375Z,51.70
2023-08-17T11:20:50.316Z,51.40
2023-08-17T11:23:17.302Z,50.40
2023-08-17T11:25:44.375Z,51.00
2023-08-17T11:28:11.507Z,50.50
2023-08-17T11:30:40.483Z,50.00
2023-08-17T11:33:08.218Z,49.60
2023-08-17T11:35:35.692Z,49.00
2023-08-17T11:38:08.033Z,48.40
2023-08-17T11:40:35.401Z,49.00
2023-08-17T11:43:02.401Z,47.80
2023-08-17T11:45:29.349Z,46.80
2023-08-17T11:47:56.345Z,47.20
2023-08-17T11:50:23.331Z,47.50
2023-08-17T11:52:50.345Z,46.60
2023-08-17T11:55:19.134Z,46.70
2023-08-17T11:57:46.087Z,46.30
2023-08-17T12:00:21.346Z,46.60
2023-08-17T12:02:51.848Z,47.80
2023-08-17T12:05:26.152Z,48.00
2023-08-17T12:07:54.158Z,47.10
2023-08-17T12:10:21.113Z,46.80
2023-08-17T12:12:48.965Z,47.90
2023-08-17T12:15:17.863Z,47.50
2023-08-17T12:17:48.449Z,47.30
2023-08-17T12:20:19.245Z,47.50
2023-08-17T12:22:46.886Z,47.70
2023-08-17T12:25:13.984Z,47.40
2023-08-17T12:27:41.233Z,47.70
2023-08-17T12:30:29.483Z,48.10
2023-08-17T12:32:58.578Z,48.60
2023-08-17T12:35:26.564Z,48.50
2023-08-17T12:37:54.045Z,49.20
2023-08-17T12:40:21.450Z,49.90
2023-08-17T12:42:48.431Z,49.90
2023-08-17T12:45:16.252Z,50.10
2023-08-17T12:47:43.389Z,50.10
2023-08-17T12:50:10.591Z,49.80
2023-08-17T12:52:37.556Z,48.50
2023-08-17T12:55:04.744Z,48.70
2023-08-17T12:57:31.739Z,49.10
2023-08-17T12:59:59.042Z,49.20
2023-08-17T13:02:26.271Z,49.70
2023-08-17T13:04:53.489Z,50.00
2023-08-17T13:07:20.411Z,49.40
2023-08-17T13:09:49.967Z,49.80
2023-08-17T13:12:16.896Z,49.80
2023-08-17T13:14:43.851Z,50.20
2023-08-17T13:17:10.826Z,50.50
2023-08-17T13:19:37.818Z,51.40
2023-08-17T13:22:05.220Z,51.60
2023-08-17T13:24:32.503Z,52.20
2023-08-17T13:26:59.429Z,52.50
2023-08-17T13:29:26.432Z,52.20
2023-08-17T13:31:53.464Z,52.50
2023-08-17T13:34:20.430Z,52.90
2023-08-17T13:36:47.305Z,53.30
2023-08-17T13:39:14.270Z,53.50
2023-08-17T13:41:41.762Z,53.90
2023-08-17T13:44:08.741Z,54.00
2023-08-17T13:46:35.709Z,53.80
2023-08-17T13:49:02.844Z,53.20
2023-08-17T13:51:29.751Z,53.30
2023-08-17T13:53:56.740Z,53.20
2023-08-17T13:56:23.688Z,53.20
2023-08-17T13:58:50.654Z,53.10
2023-08-17T14:01:18.273Z,52.60
2023-08-17T14:03:45.505Z,52.10
2023-08-17T14:06:12.514Z,52.60
2023-08-17T14:08:39.715Z,52.30
2023-08-17T14:11:07.738Z,52.10
2023-08-17T14:13:35.363Z,51.70
2023-08-17T14:16:02.355Z,52.10
2023-08-17T14:18:29.404Z,51.30
2023-08-17T14:20:56.349Z,50.70
2023-08-17T14:23:23.334Z,51.00
2023-08-17T14:25:52.717Z,49.80
2023-08-17T14:28:20.097Z,51.70
2023-08-17T14:30:52.650Z,51.00
2023-08-17T14:33:19.928Z,50.90
2023-08-17T14:35:47.206Z,49.20
2023-08-17T14:38:14.745Z,48.70
2023-08-17T14:40:45.475Z,47.90
2023-08-17T14:43:14.796Z,47.40
2023-08-17T14:45:42.567Z,47.40
2023-08-17T14:48:09.857Z,48.10
2023-08-17T14:50:37.071Z,48.30
2023-08-17T14:53:04.645Z,50.20
2023-08-17T14:55:31.653Z,50.50
2023-08-17T14:58:03.198Z,51.80
2023-08-17T15:00:33.521Z,54.70
2023-08-17T15:03:01.240Z,55.00
2023-08-17T15:05:28.716Z,57.30
2023-08-17T15:07:56.166Z,58.20
2023-08-17T15:10:23.270Z,60.70
2023-08-17T15:12:50.285Z,64.40
2023-08-17T15:15:20.704Z,66.80
2023-08-17T15:17:48.193Z,69.70
2023-08-17T15:20:15.203Z,73.00
2023-08-17T15:22:42.144Z,75.30
2023-08-17T15:25:09.253Z,75.10
2023-08-17T15:27:36.209Z,79.10
2023-08-17T15:30:03.382Z,80.00
2023-08-17T15:32:30.847Z,80.10
2023-08-17T15:34:58.289Z,81.20
2023-08-17T15:37:25.954Z,84.10
2023-08-17T15:39:53.492Z,82.60
2023-08-17T15:42:20.501Z,82.10
2023-08-17T15:44:48.022Z,80.60
2023-08-17T15:47:16.270Z,79.90
2023-08-17T15:49:43.407Z,76.90
2023-08-17T15:52:12.653Z,75.80
2023-08-17T15:54:41.834Z,76.60
2023-08-17T15:57:10.626Z,76.70
2023-08-17T15:59:39.872Z,78.90
2023-08-17T16:02:07.611Z,77.70
2023-08-17T16:04:34.940Z,76.90
2023-08-17T16:07:02.018Z,77.10
2023-08-17T16:09:31.415Z,77.70
2023-08-17T16:11:58.952Z,77.40
2023-08-17T16:14:26.638Z,79.00
2023-08-17T16:16:56.620Z,78.10
2023-08-17T16:19:24.288Z,81.00
2023-08-17T16:21:51.334Z,81.60
2023-08-17T16:24:18.317Z,82.90
2023-08-17T16:26:45.386Z,81.60
2023-08-17T16:29:12.410Z,86.40
2023-08-17T16:31:39.506Z,89.80
2023-08-17T16:34:06.465Z,90.00
2023-08-17T16:36:36.388Z,90.70
2023-08-17T16:39:04.114Z,88.80
2023-08-17T16:41:31.075Z,90.50
2023-08-17T16:43:58.022Z,91.20
2023-08-17T16:46:25.016Z,90.10
2023-08-17T16:48:53.081Z,90.30
2023-08-17T16:51:20.074Z,90.20
2023-08-17T16:53:50.947Z,90.00
2023-08-17T16:56:18.318Z,89.40
2023-08-17T16:58:45.265Z,89.50
2023-08-17T17:01:14.946Z,89.40
2023-08-17T17:03:43.478Z,90.20
2023-08-17T17:06:11.469Z,88.90
2023-08-17T17:08:38.417Z,90.40
2023-08-17T17:11:05.422Z,91.10
2023-08-17T17:13:32.564Z,92.20
2023-08-17T17:15:59.546Z,93.00
2023-08-17T17:18:26.509Z,93.30
2023-08-17T17:20:53.501Z,93.60
2023-08-17T17:23:20.471Z,93.70
2023-08-17T17:25:47.489Z,93.10
2023-08-17T17:28:14.671Z,93.10
2023-08-17T17:30:41.736Z,93.90
2023-08-17T17:33:08.819Z,95.00
2023-08-17T17:35:35.975Z,96.40
2023-08-17T17:38:02.943Z,97.60
2023-08-17T17:40:29.920Z,99.60
2023-08-17T17:42:56.860Z,99.90
2023-08-17T17:45:24.861Z,99.90
2023-08-17T17:47:51.872Z,99.90
2023-08-17T17:50:19.012Z,99.90
2023-08-17T17:52:48.607Z,99.90
2023-08-17T17:55:15.798Z,99.90
2023-08-17T17:57:44.857Z,99.90
2023-08-17T18:00:12.401Z,99.90
2023-08-17T18:02:39.395Z,99.90
2023-08-17T18:05:07.108Z,99.90
2023-08-17T18:07:34.033Z,99.90
2023-08-17T18:10:03.579Z,99.90
2023-08-17T18:12:31.528Z,99.90
2023-08-17T18:14:58.561Z,99.90
2023-08-17T18:17:25.536Z,99.90
2023-08-17T18:19:52.506Z,99.90
2023-08-17T18:22:21.305Z,99.90
2023-08-17T18:24:48.244Z,99.90
2023-08-17T18:27:15.146Z,99.90
2023-08-17T18:29:42.083Z,99.90
2023-08-17T18:32:09.010Z,99.90
2023-08-17T18:34:35.947Z,99.90
2023-08-17T18:37:03.605Z,99.90
2023-08-17T18:39:30.547Z,99.90
2023-08-17T18:41:57.458Z,99.90
2023-08-17T18:44:24.341Z,99.90
2023-08-17T18:46:51.267Z,99.90
2023-08-17T18:49:18.182Z,99.90
2023-08-17T18:51:45.131Z,99.90
2023-08-17T18:54:12.062Z,99.90
2023-08-17T18:56:39.011Z,99.90
2023-08-17T18:59:06.070Z,99.90
2023-08-17T19:01:33.024Z,99.90
2023-08-17T19:04:00.853Z,99.90
2023-08-17T19:06:27.762Z,99.90
2023-08-17T19:08:54.676Z,99.90
2023-08-17T19:11:21.607Z,99.90
2023-08-17T19:13:48.549Z,99.90
2023-08-17T19:16:15.649Z,99.90
2023-08-17T19:18:45.706Z,99.90
2023-08-17T19:21:12.696Z,99.90
2023-08-17T19:23:39.665Z,99.90
2023-08-17T19:26:07.045Z,99.90
2023-08-17T19:28:34.050Z,99.90
2023-08-17T19:31:00.955Z,99.90
2023-08-17T19:33:27.852Z,99.90
2023-08-17T19:35:54.915Z,99.90
2023-08-17T19:38:23.037Z,99.90
2023-08-17T19:40:49.993Z,99.90
2023-08-17T19:43:17.132Z,99.90
2023-08-17T19:45:44.069Z,99.90
2023-08-17T19:48:11.112Z,99.90
2023-08-17T19:50:38.015Z,99.90
2023-08-17T19:53:05.019Z,99.90
2023-08-17T19:55:31.996Z,99.90
2023-08-17T19:57:58.877Z,99.90
2023-08-17T20:00:25.817Z,99.90
2023-08-17T20:02:55.987Z,99.90
2023-08-17T20:05:23.160Z,99.90
2023-08-17T20:07:50.517Z,99.90
2023-08-17T20:10:17.583Z,99.90
2023-08-17T20:12:44.530Z,99.90
2023-08-17T20:15:11.713Z,99.90
2023-08-17T20:17:38.609Z,99.90
2023-08-17T20:20:09.286Z,99.90
2023-08-17T20:22:36.180Z,99.90
2023-08-17T20:25:04.975Z,99.90
2023-08-17T20:27:31.909Z,99.90
2023-08-17T20:29:59.056Z,99.90
2023-08-17T20:32:25.968Z,99.90
2023-08-17T20:34:55.618Z,99.90
2023-08-17T20:37:22.663Z,99.90
2023-08-17T20:39:49.637Z,99.90
2023-08-17T20:42:16.566Z,99.90
2023-08-17T20:44:43.513Z,99.90
2023-08-17T20:47:10.681Z,99.90
2023-08-17T20:49:38.268Z,99.90
2023-08-17T20:52:05.252Z,99.90
2023-08-17T20:54:32.292Z,99.90
2023-08-17T20:56:59.244Z,99.90
2023-08-17T20:59:26.122Z,99.90
2023-08-17T21:01:53.034Z,99.90
2023-08-17T21:04:19.910Z,99.90
2023-08-17T21:06:46.824Z,99.90
2023-08-17T21:09:13.727Z,99.90
2023-08-17T21:11:40.608Z,99.90
2023-08-17T21:14:07.584Z,99.90
2023-08-17T21:16:34.491Z,99.90
2023-08-17T21:19:01.459Z,99.90
2023-08-17T21:21:29.308Z,99.90
2023-08-17T21:23:56.509Z,99.90
2023-08-17T21:26:23.448Z,99.90
2023-08-17T21:28:51.004Z,99.90
2023-08-17T21:31:17.932Z,99.90
2023-08-17T21:33:45.246Z,99.90
2023-08-17T21:36:12.124Z,99.90
2023-08-17T21:38:39.040Z,99.90
2023-08-17T21:41:05.983Z,99.90
2023-08-17T21:43:32.933Z,99.90
2023-08-17T21:46:00.730Z,99.90
2023-08-17T21:48:28.349Z,99.90
2023-08-17T21:50:55.284Z,99.90
2023-08-17T21:53:22.413Z,99.90
2023-08-17T21:55:50.060Z,99.90
2023-08-17T21:58:18.530Z,99.90
2023-08-17T22:00:46.238Z,99.90
2023-08-17T22:03:13.538Z,99.90
2023-08-17T22:05:40.565Z,99.90
2023-08-17T22:08:07.587Z,99.90
2023-08-17T22:10:34.486Z,99.90
2023-08-17T22:13:01.460Z,99.90
2023-08-17T22:15:28.355Z,99.90
2023-08-17T22:17:55.329Z,99.90
2023-08-17T22:20:22.307Z,99.90
2023-08-17T22:22:49.234Z,99.90
2023-08-17T22:25:16.319Z,99.90
2023-08-17T22:27:43.254Z,99.90
2023-08-17T22:30:10.942Z,99.90
2023-08-17T22:32:37.891Z,99.90
2023-08-17T22:35:05.887Z,99.90
2023-08-17T22:37:32.769Z,99.90
2023-08-17T22:39:59.673Z,99.90
2023-08-17T22:42:26.582Z,99.90
2023-08-17T22:44:53.498Z,99.90
2023-08-17T22:47:20.398Z,99.90
2023-08-17T22:49:47.291Z,99.90
2023-08-17T22:52:14.283Z,99.90
2023-08-17T22:54:41.202Z,99.90
2023-08-17T22:57:08.095Z,99.90
2023-08-17T22:59:34.970Z,99.90
2023-08-17T23:02:02.088Z,99.90
2023-08-17T23:04:29.400Z,99.90
2023-08-17T23:06:56.483Z,99.90
2023-08-17T23:09:23.399Z,99.90
2023-08-17T23:11:50.325Z,99.90
2023-08-17T23:14:17.229Z,99.90
2023-08-17T23:16:44.127Z,99.90
2023-08-17T23:19:10.983Z,99.90
2023-08-17T23:21:37.897Z,99.90
2023-08-17T23:24:05.225Z,99.90
2023-08-17T23:26:32.976Z,99.90
2023-08-17T23:28:59.913Z,99.90
2023-08-17T23:31:27.246Z,99.90
2023-08-17T23:33:54.187Z,99.90
2023-08-17T23:36:21.146Z,99.90
2023-08-17T23:38:48.052Z,99.90
2023-08-17T23:41:14.928Z,99.90
2023-08-17T23:43:41.821Z,99.90
2023-08-17T23:46:08.785Z,99.90
2023-08-17T23:48:35.695Z,99.90
2023-08-17T23:51:02.695Z,99.90
2023-08-17T23:53:29.624Z,99.90
2023-08-17T23:55:56.526Z,99.90
2023-08-17T23:58:23.493Z,99.90
